Time;durP1;ratioP1;P1;durP2;ratioP2;P2;SDS_P1;SDS_P2;PMS_P1;PMS_P2;Temp;Humidity;BMP_temperature;BMP_pressure;BME280_temperature;BME280_humidity;BME280_pressure;Samples;Min_cycle;Max_cycle;Signal;HPM_P1;HPM_P2
2022/05/14 11:06:02;;;;;;;11.50;3.97;;;;;;;16.82;100.00;102194.25;5032160;28;20578;-74
2022/05/14 11:08:42;;;;;;;23.87;4.57;;;;;;;16.26;100.00;102106.03;5033133;28;20458;-72
2022/05/14 11:11:11;;;;;;;18.10;3.80;;;;;;;16.85;100.00;102193.84;5019445;28;21102;-73
2022/05/14 11:13:37;;;;;;;17.33;3.80;;;;;;;16.64;100.00;102166.91;5023874;28;20813;-73
2022/05/14 11:16:06;;;;;;;22.20;5.40;;;;;;;16.54;100.00;102159.16;5022930;28;20448;-72
2022/05/14 11:18:44;;;;;;;15.63;4.83;;;;;;;17.11;100.00;102200.31;5017881;28;20473;-72
2022/05/14 11:21:10;;;;;;;14.87;3.30;;;;;;;16.95;100.00;102185.28;5021912;28;20455;-72
2022/05/14 11:23:57;;;;;;;15.60;3.53;;;;;;;17.01;100.00;102172.75;5015591;28;20438;-72
2022/05/14 11:26:25;;;;;;;14.17;4.23;;;;;;;16.91;100.00;102179.44;5015058;28;20657;-74
2022/05/14 11:28:57;;;;;;;15.87;4.40;;;;;;;17.03;100.00;102204.03;5024487;28;20497;-74
2022/05/14 11:31:26;;;;;;;13.10;3.73;;;;;;;17.20;100.00;102188.19;5013134;28;20443;-73
2022/05/14 11:33:55;;;;;;;10.67;3.33;;;;;;;17.55;100.00;102201.50;5011656;28;20832;-73
2022/05/14 11:36:25;;;;;;;13.93;4.40;;;;;;;17.29;100.00;102181.50;5027746;28;20442;-74
2022/05/14 11:39:25;;;;;;;14.80;3.60;;;;;;;17.58;100.00;102207.31;5026867;28;21234;-74
2022/05/14 11:41:54;;;;;;;11.53;3.80;;;;;;;17.24;100.00;102205.72;5029831;28;20419;-73
2022/05/14 11:44:32;;;;;;;15.03;4.20;;;;;;;17.42;100.00;102199.66;5028841;28;20467;-72
2022/05/14 11:47:02;;;;;;;19.10;5.93;;;;;;;17.36;100.00;102211.34;5029908;28;20484;-72
2022/05/14 11:49:41;;;;;;;14.93;4.60;;;;;;;17.42;100.00;102209.69;5025170;28;20490;-72
2022/05/14 11:52:35;;;;;;;13.13;4.43;;;;;;;17.10;100.00;102195.94;5033420;28;20852;-74
2022/05/14 11:55:15;;;;;;;13.13;4.00;;;;;;;17.65;100.00;102211.88;5024621;28;20466;-74
2022/05/14 11:57:48;;;;;;;15.60;4.37;;;;;;;17.56;100.00;102208.56;5022697;28;20459;-74
2022/05/14 12:00:17;;;;;;;13.43;3.80;;;;;;;17.68;100.00;102206.91;5022923;28;20548;-75
2022/05/14 12:02:47;;;;;;;17.97;5.17;;;;;;;17.25;100.00;102126.03;5024617;28;20447;-74
2022/05/14 12:05:38;;;;;;;12.93;4.73;;;;;;;17.84;100.00;102205.63;5017044;28;20588;-74
2022/05/14 12:08:15;;;;;;;14.57;4.93;;;;;;;18.05;100.00;102207.19;5021462;28;20455;-74
2022/05/14 12:10:49;;;;;;;9.97;4.07;;;;;;;18.24;100.00;102205.47;5024103;28;20457;-74
2022/05/14 12:13:24;;;;;;;18.30;4.90;;;;;;;17.99;100.00;102208.06;5020801;28;20453;-74
2022/05/14 12:15:56;;;;;;;14.20;4.67;;;;;;;17.94;100.00;102202.47;5019836;28;20931;-73
2022/05/14 12:18:22;;;;;;;15.40;4.70;;;;;;;17.94;100.00;102206.00;5011747;28;20526;-74
2022/05/14 12:21:00;;;;;;;16.07;4.60;;;;;;;18.15;100.00;102207.59;5008754;28;20547;-72
2022/05/14 12:23:39;;;;;;;16.47;4.00;;;;;;;18.32;100.00;102209.81;5010694;28;20439;-73
2022/05/14 12:26:24;;;;;;;15.70;4.37;;;;;;;17.98;100.00;102214.56;5007668;28;20807;-72
2022/05/14 12:28:54;;;;;;;15.83;4.50;;;;;;;18.19;100.00;102210.69;5009045;28;20447;-73
2022/05/14 12:34:16;;;;;;;14.27;4.20;;;;;;;17.89;100.00;102184.09;4996750;28;20538;-72
2022/05/14 12:36:49;;;;;;;17.47;4.70;;;;;;;17.75;100.00;102152.59;5005326;28;20827;-73
2022/05/14 12:39:27;;;;;;;12.83;3.73;;;;;;;18.09;100.00;102208.44;5008680;28;20208;-73
2022/05/14 12:42:02;;;;;;;14.10;3.87;;;;;;;18.44;100.00;102205.34;5041728;28;21177;-73
2022/05/14 12:44:47;;;;;;;11.40;4.50;;;;;;;17.54;100.00;102110.31;5007814;28;20475;-73
2022/05/14 12:47:25;;;;;;;16.37;3.73;;;;;;;18.19;100.00;102187.09;5005942;28;21150;-73
2022/05/14 12:49:51;;;;;;;10.10;3.50;;;;;;;18.15;100.00;102193.19;5006582;28;20469;-73
2022/05/14 12:52:20;;;;;;;23.03;3.40;;;;;;;18.21;100.00;102195.84;5044794;28;20448;-74
2022/05/14 12:55:04;;;;;;;11.77;3.60;;;;;;;18.28;100.00;102206.69;5011243;28;20444;-73
2022/05/14 12:57:31;;;;;;;12.27;4.27;;;;;;;18.05;100.00;102201.78;5007029;28;20518;-73
2022/05/14 12:59:57;;;;;;;12.70;4.30;;;;;;;17.94;100.00;102156.31;5009885;28;20447;-73
2022/05/14 13:02:33;;;;;;;13.30;3.87;;;;;;;18.18;100.00;102193.56;5007374;28;20436;-74
2022/05/14 13:05:19;;;;;;;13.23;3.70;;;;;;;18.31;100.00;102195.38;5008592;28;20478;-73
2022/05/14 13:07:49;;;;;;;15.37;4.57;;;;;;;18.60;100.00;102209.41;5008692;28;20440;-73
2022/05/14 13:10:21;;;;;;;10.90;3.47;;;;;;;18.19;100.00;102118.38;5006433;28;20447;-74
2022/05/14 13:12:54;;;;;;;10.73;3.57;;;;;;;18.67;100.00;102169.47;5005101;28;20435;-73
2022/05/14 13:15:29;;;;;;;10.57;3.50;;;;;;;18.32;100.00;102180.75;5008615;28;20447;-74
2022/05/14 13:17:55;;;;;;;14.83;4.10;;;;;;;17.84;100.00;102116.06;5005178;28;20942;-73
2022/05/14 13:20:24;;;;;;;7.77;3.13;;;;;;;18.10;100.00;102160.41;5006747;28;20464;-73
2022/05/14 13:23:03;;;;;;;10.60;3.10;;;;;;;18.68;100.00;102201.84;5009359;28;20189;-73
2022/05/14 13:25:32;;;;;;;14.77;4.00;;;;;;;18.86;100.00;102194.84;5010666;28;20464;-74
2022/05/14 13:28:13;;;;;;;12.03;3.43;;;;;;;18.09;100.00;102165.00;4989514;28;20443;-73
2022/05/14 13:30:38;;;;;;;9.63;3.47;;;;;;;18.36;100.00;102156.72;5001423;28;20517;-73
2022/05/14 13:33:07;;;;;;;16.80;4.00;;;;;;;18.51;100.00;102187.09;5002436;28;20448;-73
2022/05/14 13:38:17;;;;;;;9.17;3.13;;;;;;;18.80;100.00;102128.59;5003504;28;20923;-73
2022/05/14 13:40:47;;;;;;;14.83;4.60;;;;;;;18.75;100.00;102199.13;4999155;28;20467;-73
2022/05/14 13:43:28;;;;;;;14.20;4.93;;;;;;;18.91;100.00;102182.25;5004483;28;20464;-73
2022/05/14 13:45:59;;;;;;;16.80;3.60;;;;;;;18.76;100.00;102143.69;5038718;28;20467;-72
2022/05/14 13:48:40;;;;;;;8.90;3.53;;;;;;;18.69;100.00;102157.31;5008683;28;20447;-73
2022/05/14 13:51:28;;;;;;;15.47;3.83;;;;;;;18.49;100.00;102194.66;5001599;28;20514;-73
2022/05/14 13:54:15;;;;;;;12.90;4.33;;;;;;;18.21;100.00;102185.00;5006631;28;20506;-73
2022/05/14 13:56:41;;;;;;;12.03;4.20;;;;;;;18.61;100.00;102184.75;4995517;28;20486;-72
2022/05/14 13:59:27;;;;;;;13.83;4.00;;;;;;;18.56;100.00;102160.13;5005813;28;20472;-73
2022/05/14 14:02:07;;;;;;;10.60;3.73;;;;;;;18.79;100.00;102121.50;5006326;28;20432;-73
2022/05/14 14:04:33;;;;;;;16.87;4.13;;;;;;;18.93;100.00;102116.78;5003224;28;20892;-73
2022/05/14 14:07:02;;;;;;;13.77;4.10;;;;;;;18.76;100.00;102195.34;5011496;28;20821;-73
2022/05/14 14:09:28;;;;;;;16.70;5.43;;;;;;;18.76;100.00;102165.44;5009561;28;20545;-73
2022/05/14 14:11:54;;;;;;;10.43;3.60;;;;;;;18.76;100.00;102167.34;5002423;28;20600;-73
2022/05/14 14:14:20;;;;;;;13.67;3.90;;;;;;;18.93;100.00;102190.19;5008527;28;20452;-73
2022/05/14 14:16:46;;;;;;;11.50;3.57;;;;;;;18.59;100.00;102104.50;5004437;28;20184;-73
2022/05/14 14:19:12;;;;;;;7.93;3.50;;;;;;;19.39;100.00;102195.22;5005475;28;20943;-73
2022/05/14 14:21:38;;;;;;;11.80;4.40;;;;;;;19.15;100.00;102188.75;5040639;28;20967;-73
2022/05/14 14:24:06;;;;;;;15.10;4.00;;;;;;;18.42;100.00;102129.50;5006376;28;21110;-73
2022/05/14 14:26:33;;;;;;;15.83;5.03;;;;;;;18.38;100.00;102160.03;5010417;28;20436;-73
2022/05/14 14:29:00;;;;;;;14.47;4.30;;;;;;;18.86;100.00;102143.19;5014034;28;20462;-73
2022/05/14 14:31:25;;;;;;;12.20;3.67;;;;;;;18.76;100.00;102113.81;5012811;28;20430;-73
2022/05/14 14:33:51;;;;;;;12.23;3.43;;;;;;;19.40;100.00;102196.03;5010213;28;20436;-72
2022/05/14 14:36:17;;;;;;;10.97;3.30;;;;;;;19.47;100.00;102185.06;5012404;28;20274;-73
2022/05/14 14:38:43;;;;;;;7.53;3.17;;;;;;;19.43;100.00;102188.25;5010767;28;20664;-73
2022/05/14 14:41:09;;;;;;;13.87;4.00;;;;;;;19.27;100.00;102158.94;5004846;28;20435;-73
2022/05/14 14:43:36;;;;;;;10.90;3.70;;;;;;;18.79;100.00;102132.38;5009943;28;20481;-73
2022/05/14 14:46:03;;;;;;;9.60;3.53;;;;;;;19.15;100.00;102171.59;5014084;28;21196;-72
2022/05/14 14:48:32;;;;;;;10.77;5.03;;;;;;;18.79;100.00;102204.94;5009457;28;20886;-74
2022/05/14 14:50:59;;;;;;;14.20;4.47;;;;;;;18.74;100.00;102197.44;5014986;28;20443;-73
2022/05/14 14:53:24;;;;;;;11.77;3.80;;;;;;;18.42;100.00;102123.22;5013489;28;20447;-73
2022/05/14 14:55:49;;;;;;;13.20;3.20;;;;;;;18.95;100.00;102117.41;5006330;28;20469;-72
2022/05/14 14:58:15;;;;;;;14.40;4.60;;;;;;;19.12;100.00;102194.66;5007049;28;20201;-73
2022/05/14 15:00:43;;;;;;;11.00;3.30;;;;;;;19.15;100.00;102190.63;5003157;28;20608;-73
2022/05/14 15:03:47;;;;;;;13.50;4.37;;;;;;;18.96;100.00;102190.59;5002610;28;20188;-73
2022/05/14 15:06:15;;;;;;;14.50;4.90;;;;;;;18.71;100.00;102185.09;5002234;28;20510;-73
2022/05/14 15:08:42;;;;;;;16.87;4.67;;;;;;;19.12;100.00;102186.47;5008441;28;20443;-73
2022/05/14 15:11:11;;;;;;;10.80;4.17;;;;;;;19.50;100.00;102181.91;5010635;28;20439;-73
2022/05/14 15:13:39;;;;;;;13.60;4.67;;;;;;;19.49;100.00;102191.13;5008173;28;20526;-73
2022/05/14 15:16:07;;;;;;;13.33;4.50;;;;;;;19.06;100.00;102156.59;5014097;28;20474;-74
2022/05/14 15:18:33;;;;;;;15.40;3.97;;;;;;;18.96;100.00;102181.59;5007566;28;20440;-73
2022/05/14 15:21:00;;;;;;;17.50;4.60;;;;;;;19.24;100.00;102155.81;5031137;22;20892;-70
2022/05/14 15:23:27;;;;;;;11.37;4.27;;;;;;;19.44;100.00;102151.00;5039968;28;20442;-70
2022/05/14 15:25:53;;;;;;;7.33;3.43;;;;;;;19.58;100.00;102155.22;5037230;28;20477;-70
2022/05/14 15:28:19;;;;;;;10.50;4.17;;;;;;;19.42;100.00;102185.78;5036622;28;20938;-69
2022/05/14 15:30:44;;;;;;;13.67;4.00;;;;;;;19.45;100.00;102184.50;5036117;28;20524;-69
2022/05/14 15:33:10;;;;;;;10.47;3.80;;;;;;;19.18;100.00;102180.16;5030847;28;20184;-68
2022/05/14 15:35:35;;;;;;;14.47;3.90;;;;;;;17.91;100.00;101956.72;5042013;28;20209;-68
2022/05/14 15:38:01;;;;;;;13.03;3.93;;;;;;;19.07;100.00;102185.50;5046303;28;20199;-68
2022/05/14 15:40:28;;;;;;;11.17;3.90;;;;;;;18.92;100.00;102112.41;5045731;28;20199;-67
2022/05/14 15:42:56;;;;;;;15.53;4.50;;;;;;;19.09;100.00;102159.75;5039924;28;20549;-68
2022/05/14 15:45:29;;;;;;;10.67;3.87;;;;;;;19.42;100.00;102188.50;5043499;28;20466;-68
2022/05/14 15:47:58;;;;;;;11.43;3.83;;;;;;;19.43;100.00;102171.09;5045160;28;20414;-68
2022/05/14 15:50:28;;;;;;;12.50;4.47;;;;;;;19.03;100.00;102173.38;5046699;28;20446;-68
2022/05/14 15:52:56;;;;;;;11.17;4.20;;;;;;;19.07;100.00;102180.88;5050776;28;20422;-67
2022/05/14 15:55:26;;;;;;;14.00;3.87;;;;;;;18.73;100.00;102103.34;5050899;28;20493;-68
2022/05/14 15:57:51;;;;;;;9.97;3.53;;;;;;;19.13;100.00;102185.41;5052384;28;20519;-68
2022/05/14 16:00:19;;;;;;;14.10;4.87;;;;;;;19.20;100.00;102172.56;5051056;28;20488;-68
2022/05/14 16:02:45;;;;;;;8.70;3.60;;;;;;;19.32;100.00;102188.16;5049477;28;20188;-68
2022/05/14 16:05:12;;;;;;;14.60;4.30;;;;;;;19.56;100.00;102181.03;5048789;28;20464;-67
2022/05/14 16:07:39;;;;;;;9.03;3.00;;;;;;;19.38;100.00;102185.41;5050644;28;20414;-67
2022/05/14 16:15:55;;;;;;;7.37;4.20;;;;;;;19.46;100.00;102165.19;5052051;28;20402;-68
2022/05/14 16:18:23;;;;;;;12.30;4.87;;;;;;;19.29;100.00;102175.84;5050937;28;20411;-69
2022/05/14 16:20:49;;;;;;;9.57;3.90;;;;;;;19.32;100.00;102140.03;5047536;28;20516;-68
2022/05/14 16:23:15;;;;;;;13.30;5.70;;;;;;;19.55;100.00;102174.72;5048579;28;21011;-68
2022/05/14 16:25:40;;;;;;;14.13;4.30;;;;;;;19.62;100.00;102185.56;5049548;28;20212;-68
2022/05/14 16:28:06;;;;;;;12.23;3.80;;;;;;;19.51;100.00;102191.75;5050418;28;20206;-68
2022/05/14 16:30:32;;;;;;;8.33;3.50;;;;;;;19.36;100.00;102127.66;5049350;28;20214;-68
2022/05/14 16:32:58;;;;;;;12.07;3.47;;;;;;;19.43;100.00;102136.56;5047965;28;20188;-68
2022/05/14 16:35:24;;;;;;;10.40;6.00;;;;;;;19.67;100.00;102193.88;5047307;28;20480;-68
2022/05/14 16:37:51;;;;;;;15.90;7.00;;;;;;;19.89;100.00;102191.56;5050712;28;20274;-68
2022/05/14 16:40:17;;;;;;;10.93;5.07;;;;;;;19.41;100.00;102163.19;5049826;28;20499;-68
2022/05/14 16:42:43;;;;;;;10.10;4.70;;;;;;;19.75;100.00;102193.59;5048904;28;20922;-68
2022/05/14 16:45:10;;;;;;;9.77;4.10;;;;;;;19.87;100.00;102199.09;5049119;28;20464;-69
2022/05/14 16:47:36;;;;;;;7.20;3.70;;;;;;;20.06;100.00;102165.34;5049960;28;20267;-68
2022/05/14 16:50:10;;;;;;;12.37;3.63;;;;;;;20.13;100.00;102157.09;5046274;28;20520;-68
2022/05/14 16:52:37;;;;;;;11.10;3.40;;;;;;;21.71;100.00;102192.06;5048719;28;20423;-68
2022/05/14 16:55:03;;;;;;;9.47;4.73;;;;;;;26.44;93.55;102177.00;5050123;28;20509;-68
2022/05/14 16:57:30;;;;;;;12.87;4.73;;;;;;;27.64;73.67;102159.78;5049286;28;20457;-69
2022/05/14 16:59:55;;;;;;;12.07;5.00;;;;;;;28.65;61.75;102125.53;5049138;28;20434;-68
2022/05/14 17:02:21;;;;;;;16.27;6.10;;;;;;;28.88;65.65;102180.00;5047941;28;20430;-68
2022/05/14 17:04:47;;;;;;;11.73;3.90;;;;;;;28.29;65.70;102115.59;5048389;28;20683;-68
2022/05/14 17:07:13;;;;;;;12.73;3.67;;;;;;;28.76;63.64;102183.13;5045836;28;20175;-68
2022/05/14 17:09:38;;;;;;;11.47;3.17;;;;;;;27.89;68.08;102175.44;5050767;28;20445;-68
2022/05/14 17:12:05;;;;;;;9.47;3.10;;;;;;;28.29;63.18;102164.41;5049685;28;20295;-69
2022/05/14 17:14:30;;;;;;;8.73;3.37;;;;;;;28.33;69.21;102190.34;5049153;28;20226;-68
2022/05/14 17:16:56;;;;;;;10.60;3.83;;;;;;;28.19;65.60;102178.28;5048818;28;20427;-69
2022/05/14 17:19:22;;;;;;;13.20;5.60;;;;;;;28.04;65.63;102177.28;5048720;28;20669;-68
2022/05/14 17:21:47;;;;;;;10.83;4.90;;;;;;;27.86;64.11;102162.22;5045874;28;20211;-68
2022/05/14 17:24:13;;;;;;;11.27;4.10;;;;;;;28.10;66.71;102184.41;5048376;28;20231;-68
2022/05/14 17:26:41;;;;;;;9.67;3.80;;;;;;;27.93;73.16;102186.72;5048994;28;20207;-68
2022/05/14 17:29:10;;;;;;;12.80;4.40;;;;;;;27.96;76.25;102164.09;5042771;28;20244;-68
2022/05/14 17:31:36;;;;;;;11.70;4.40;;;;;;;24.95;100.00;102107.69;5048183;28;20442;-68
2022/05/14 17:34:02;;;;;;;11.37;3.80;;;;;;;23.81;100.00;102171.84;5048203;28;20851;-68
2022/05/14 17:36:31;;;;;;;11.83;4.20;;;;;;;21.69;100.00;102161.44;5045816;28;20262;-69
2022/05/14 17:41:41;;;;;;;7.70;3.70;;;;;;;25.82;100.00;102196.09;5048771;28;20437;-68
2022/05/14 17:44:07;;;;;;;12.80;4.17;;;;;;;26.33;98.25;102184.41;5048491;28;20481;-68
2022/05/14 17:46:32;;;;;;;12.20;4.40;;;;;;;25.28;100.00;102190.00;5046398;28;20813;-68
2022/05/14 17:48:58;;;;;;;8.23;3.60;;;;;;;23.57;100.00;102204.94;5046888;28;20187;-68
2022/05/14 17:51:24;;;;;;;11.00;4.00;;;;;;;22.34;100.00;102186.53;5048009;28;20235;-69
2022/05/14 17:53:52;;;;;;;18.27;4.60;;;;;;;21.42;100.00;102214.66;5045906;28;20565;-68
2022/05/14 17:56:18;;;;;;;11.27;3.53;;;;;;;20.74;100.00;102217.84;5045320;28;20184;-68
2022/05/14 17:58:43;;;;;;;11.53;4.20;;;;;;;19.52;100.00;102196.94;5046331;28;20800;-68
2022/05/14 18:01:09;;;;;;;13.87;3.50;;;;;;;18.96;100.00;102128.03;5047965;28;20282;-68
2022/05/14 18:03:34;;;;;;;9.77;4.13;;;;;;;19.06;100.00;102202.84;5048658;28;20596;-68
2022/05/14 18:06:00;;;;;;;13.67;4.17;;;;;;;18.66;100.00;102223.00;5047556;28;20706;-68
2022/05/14 18:08:26;;;;;;;14.00;3.73;;;;;;;18.51;100.00;102236.00;5048079;28;20563;-68
2022/05/14 18:13:35;;;;;;;13.13;3.80;;;;;;;18.13;100.00;102187.13;5046249;28;20298;-68
2022/05/14 18:16:00;;;;;;;12.40;3.73;;;;;;;18.16;100.00;102195.66;5046562;28;20460;-68
2022/05/14 18:18:26;;;;;;;13.10;3.73;;;;;;;17.67;100.00;102160.97;5047989;28;20310;-68
2022/05/14 18:20:51;;;;;;;8.90;4.03;;;;;;;17.93;100.00;102219.78;5047325;28;20698;-68
2022/05/14 18:23:16;;;;;;;10.00;3.40;;;;;;;17.74;100.00;102225.03;5045869;28;20191;-68
2022/05/14 18:25:55;;;;;;;12.77;4.37;;;;;;;17.51;100.00;102225.50;5047844;28;20200;-68
2022/05/14 18:28:23;;;;;;;10.07;3.70;;;;;;;17.54;100.00;102235.94;5046898;28;20659;-68
2022/05/14 18:30:54;;;;;;;12.77;4.83;;;;;;;17.44;100.00;102202.97;5045618;28;20504;-68
2022/05/14 18:33:33;;;;;;;13.80;4.37;;;;;;;17.51;100.00;102227.38;5045458;28;20421;-68
2022/05/14 18:36:02;;;;;;;12.37;4.27;;;;;;;17.08;100.00;102230.53;5046382;28;20422;-70
2022/05/14 18:38:34;;;;;;;11.90;4.23;;;;;;;17.22;100.00;102232.22;5045818;28;20469;-70
2022/05/14 18:41:00;;;;;;;13.67;4.40;;;;;;;16.84;100.00;102199.47;5045608;28;20821;-70
2022/05/14 18:43:25;;;;;;;11.80;3.53;;;;;;;16.79;100.00;102251.56;5046061;28;20422;-70
2022/05/14 18:45:51;;;;;;;11.03;3.90;;;;;;;16.89;100.00;102235.75;5045364;28;20912;-69
2022/05/14 18:48:18;;;;;;;11.90;3.70;;;;;;;16.13;100.00;102197.19;5048116;28;20211;-69
2022/05/14 18:50:44;;;;;;;13.97;4.20;;;;;;;16.58;100.00;102246.28;5047263;28;20814;-69
2022/05/14 18:53:10;;;;;;;12.73;4.23;;;;;;;16.33;100.00;102211.63;5046365;28;20790;-69
2022/05/14 18:55:35;;;;;;;12.47;3.63;;;;;;;16.40;100.00;102242.28;5047495;28;20426;-69
2022/05/14 18:58:01;;;;;;;13.37;4.57;;;;;;;15.93;100.00;102206.03;5045114;28;20203;-69
2022/05/14 19:00:28;;;;;;;17.00;5.07;;;;;;;16.25;100.00;102252.41;5047792;28;20206;-69
2022/05/14 19:02:54;;;;;;;11.87;4.00;;;;;;;15.68;100.00;102200.31;5045994;28;20187;-69
2022/05/14 19:08:04;;;;;;;16.50;4.40;;;;;;;15.45;100.00;102195.16;5046624;28;20324;-69
2022/05/14 19:10:30;;;;;;;15.03;4.60;;;;;;;15.29;100.00;102198.97;5045726;28;20532;-69
2022/05/14 19:13:00;;;;;;;16.40;5.00;;;;;;;15.60;100.00;102233.72;5048007;28;20179;-69
2022/05/14 19:15:25;;;;;;;12.37;4.33;;;;;;;15.58;100.00;102221.44;5044307;28;20782;-69
2022/05/14 19:17:51;;;;;;;12.20;4.17;;;;;;;15.54;100.00;102256.16;5047664;28;21033;-69
2022/05/14 19:20:19;;;;;;;11.33;3.83;;;;;;;15.36;100.00;102228.75;5044420;28;20340;-69
2022/05/14 19:22:45;;;;;;;15.57;4.23;;;;;;;15.41;100.00;102258.75;5045588;28;20180;-69
2022/05/14 19:25:11;;;;;;;13.60;4.43;;;;;;;15.60;100.00;102257.25;5047908;28;20469;-68
2022/05/14 19:27:37;;;;;;;11.87;4.70;;;;;;;15.04;100.00;102208.56;5049453;28;20248;-68
2022/05/14 19:30:04;;;;;;;11.67;4.10;;;;;;;15.10;100.00;102237.50;5049457;28;20422;-69
2022/05/14 19:32:30;;;;;;;15.30;4.97;;;;;;;14.93;100.00;102212.63;5048036;28;20446;-69
2022/05/14 19:34:55;;;;;;;8.73;3.87;;;;;;;15.10;100.00;102261.81;5050396;28;20422;-69
2022/05/14 19:37:32;;;;;;;16.57;4.17;;;;;;;15.04;100.00;102259.88;5049799;28;20180;-69
2022/05/14 19:40:01;;;;;;;11.93;4.47;;;;;;;14.92;100.00;102267.69;5051811;28;20664;-68
2022/05/14 19:42:34;;;;;;;13.50;4.20;;;;;;;14.80;100.00;102267.34;5051327;28;20426;-68
2022/05/14 19:45:04;;;;;;;9.20;3.70;;;;;;;14.92;100.00;102271.22;5049139;28;20462;-68
2022/05/14 19:47:30;;;;;;;12.50;5.10;;;;;;;14.57;100.00;102245.09;5046304;28;20440;-68
2022/05/14 19:50:02;;;;;;;11.67;3.60;;;;;;;14.32;100.00;102179.78;5050401;28;20418;-68
2022/05/14 19:52:28;;;;;;;9.93;4.47;;;;;;;14.54;100.00;102246.31;5049808;28;20437;-69
2022/05/14 19:54:54;;;;;;;11.17;4.63;;;;;;;14.60;100.00;102267.13;5049115;28;20449;-68
2022/05/14 19:57:21;;;;;;;13.53;4.50;;;;;;;14.64;100.00;102271.16;5049473;28;20184;-67
2022/05/14 19:59:47;;;;;;;16.67;4.67;;;;;;;14.51;100.00;102272.81;5049437;28;20443;-69
2022/05/14 20:02:19;;;;;;;13.70;4.70;;;;;;;14.57;100.00;102267.53;5045953;28;20464;-68
2022/05/14 20:04:45;;;;;;;15.23;4.67;;;;;;;14.60;100.00;102272.53;5047734;28;20827;-68
2022/05/14 20:07:10;;;;;;;11.93;4.70;;;;;;;14.23;100.00;102250.06;5051128;28;20426;-68
2022/05/14 20:09:36;;;;;;;14.87;4.77;;;;;;;14.33;100.00;102265.97;5049384;28;20209;-68
2022/05/14 20:12:02;;;;;;;15.17;4.77;;;;;;;14.05;100.00;102271.19;5042340;28;20781;-68
2022/05/14 20:14:28;;;;;;;13.27;4.73;;;;;;;13.89;100.00;102245.28;5050652;28;20191;-67
2022/05/14 20:22:25;;;;;;;12.97;4.73;;;;;;;14.02;100.00;102260.78;5045853;28;20472;-67
2022/05/14 20:24:51;;;;;;;15.00;4.53;;;;;;;13.98;100.00;102278.38;5049578;28;20466;-67
2022/05/14 20:27:17;;;;;;;17.93;4.90;;;;;;;14.06;100.00;102280.13;5049019;28;20182;-67
2022/05/14 20:29:43;;;;;;;10.63;3.83;;;;;;;13.49;100.00;102216.91;5050260;28;20198;-66
2022/05/14 20:32:09;;;;;;;17.20;4.50;;;;;;;13.77;100.00;102279.97;5049907;28;20214;-66
2022/05/14 20:34:35;;;;;;;13.50;4.40;;;;;;;13.83;100.00;102258.63;5049811;28;20516;-67
2022/05/14 20:37:05;;;;;;;11.37;4.90;;;;;;;13.81;100.00;102291.19;5045652;28;21083;-67
2022/05/14 20:39:31;;;;;;;10.00;4.23;;;;;;;13.46;100.00;102231.56;5048329;28;20469;-67
2022/05/14 20:41:56;;;;;;;16.23;4.80;;;;;;;13.82;100.00;102284.78;5041307;28;20473;-67
2022/05/14 20:44:22;;;;;;;19.70;4.20;;;;;;;13.62;100.00;102287.16;5045919;28;20684;-67
2022/05/14 20:46:48;;;;;;;14.40;4.97;;;;;;;13.54;100.00;102274.63;5049681;28;20186;-67
2022/05/14 20:49:13;;;;;;;14.60;4.80;;;;;;;13.37;100.00;102277.66;5048572;28;20185;-67
2022/05/14 20:51:39;;;;;;;15.23;4.80;;;;;;;13.00;100.00;102263.94;5049509;28;20253;-67
2022/05/14 20:54:05;;;;;;;16.03;4.90;;;;;;;13.04;100.00;102302.13;5048864;28;20405;-67
2022/05/14 20:56:31;;;;;;;14.97;4.60;;;;;;;13.19;100.00;102294.97;5047276;28;20202;-67
2022/05/14 20:58:56;;;;;;;14.50;5.10;;;;;;;13.21;100.00;102297.44;5049723;28;20906;-67
2022/05/14 21:01:25;;;;;;;13.13;4.83;;;;;;;13.12;100.00;102299.38;5047199;28;20212;-66
2022/05/14 21:03:54;;;;;;;14.13;4.00;;;;;;;12.42;100.00;102212.34;5046192;28;20195;-66
2022/05/14 21:06:20;;;;;;;11.43;4.30;;;;;;;12.99;100.00;102296.41;5049031;28;20476;-67
2022/05/14 21:08:47;;;;;;;14.07;4.60;;;;;;;12.51;100.00;102280.41;5048207;28;20418;-67
2022/05/14 21:11:12;;;;;;;13.50;4.70;;;;;;;12.60;100.00;102311.66;5049966;28;20211;-67
2022/05/14 21:13:39;;;;;;;19.80;5.00;;;;;;;12.54;100.00;102298.91;5048747;28;20438;-67
2022/05/14 21:16:06;;;;;;;13.33;5.03;;;;;;;12.56;100.00;102309.50;5049228;28;20183;-66
2022/05/14 21:18:32;;;;;;;18.90;4.03;;;;;;;12.28;100.00;102296.50;5047155;28;20852;-66
2022/05/14 21:20:57;;;;;;;17.17;5.50;;;;;;;12.63;100.00;102322.06;5052631;23;20600;-71
2022/05/14 21:23:22;;;;;;;13.57;4.77;;;;;;;12.59;100.00;102327.97;5025752;28;20271;-71
2022/05/14 21:25:48;;;;;;;17.63;5.90;;;;;;;12.36;100.00;102279.50;5023148;28;20262;-71
2022/05/14 21:28:13;;;;;;;18.07;5.73;;;;;;;12.18;100.00;102260.91;5007924;28;20274;-71
2022/05/14 21:30:39;;;;;;;20.03;5.63;;;;;;;12.29;100.00;102319.69;5026322;28;20183;-71
2022/05/14 21:33:05;;;;;;;15.80;6.03;;;;;;;12.22;100.00;102324.09;5003606;28;20189;-70
2022/05/14 21:38:16;;;;;;;15.63;6.00;;;;;;;11.95;100.00;102285.03;5008976;28;20431;-70
2022/05/14 21:40:41;;;;;;;16.43;5.67;;;;;;;12.18;100.00;102307.47;5010414;28;20451;-70
2022/05/14 21:43:08;;;;;;;14.63;5.00;;;;;;;12.47;100.00;102319.47;5013107;28;20443;-71
2022/05/14 21:45:37;;;;;;;15.10;5.73;;;;;;;11.91;100.00;102284.50;5017235;28;20197;-70
2022/05/14 21:48:04;;;;;;;14.53;5.70;;;;;;;11.97;100.00;102304.50;5014488;28;21029;-70
2022/05/14 21:50:31;;;;;;;12.23;5.63;;;;;;;11.77;100.00;102231.41;5016742;28;20960;-70
2022/05/14 21:53:02;;;;;;;16.83;5.90;;;;;;;12.29;100.00;102313.47;5009653;28;20812;-71
2022/05/14 21:55:31;;;;;;;15.57;6.00;;;;;;;12.20;100.00;102296.53;5016613;28;20431;-71
2022/05/14 21:57:57;;;;;;;13.13;5.73;;;;;;;12.30;100.00;102290.94;5019395;28;20497;-71
2022/05/14 22:00:22;;;;;;;18.43;6.10;;;;;;;12.19;100.00;102324.44;4999251;28;20458;-71
2022/05/14 22:02:49;;;;;;;16.37;5.87;;;;;;;11.74;100.00;102243.38;5015808;28;20470;-71
2022/05/14 22:05:17;;;;;;;16.03;6.40;;;;;;;12.07;100.00;102325.84;5020348;28;20224;-71
2022/05/14 22:07:44;;;;;;;21.70;7.33;;;;;;;11.99;100.00;102300.63;5020860;28;20978;-71
2022/05/14 22:10:09;;;;;;;14.83;5.20;;;;;;;11.88;100.00;102305.53;5018892;28;20454;-71
2022/05/14 22:12:35;;;;;;;13.60;4.90;;;;;;;12.28;100.00;102326.09;5003927;28;20468;-72
2022/05/14 22:15:01;;;;;;;13.60;5.70;;;;;;;11.20;100.00;102228.84;5024425;28;20250;-71
2022/05/14 22:17:26;;;;;;;19.83;5.83;;;;;;;11.59;100.00;102323.00;5022401;28;20620;-71
2022/05/14 22:19:51;;;;;;;16.53;5.00;;;;;;;11.09;100.00;102241.59;5021619;28;20184;-71
2022/05/14 22:22:17;;;;;;;18.47;7.10;;;;;;;11.62;100.00;102319.16;5020872;28;20248;-71
2022/05/14 22:24:42;;;;;;;17.33;5.90;;;;;;;11.67;100.00;102330.22;5021819;28;20202;-71
2022/05/14 22:27:08;;;;;;;16.97;6.27;;;;;;;11.74;100.00;102326.72;5021730;28;20181;-71
2022/05/14 22:29:34;;;;;;;15.57;5.93;;;;;;;11.73;100.00;102332.25;5024897;28;20184;-71
2022/05/14 22:31:59;;;;;;;17.20;6.43;;;;;;;11.43;100.00;102263.94;5021140;28;20223;-71
2022/05/14 22:34:25;;;;;;;16.63;5.73;;;;;;;11.23;100.00;102268.81;5019694;28;20281;-71
2022/05/14 22:36:50;;;;;;;19.93;5.70;;;;;;;11.50;100.00;102276.50;5023090;28;20196;-71
2022/05/14 22:39:16;;;;;;;18.63;5.70;;;;;;;10.76;100.00;102213.91;5020903;28;20191;-71
2022/05/14 22:41:41;;;;;;;16.93;6.30;;;;;;;11.14;100.00;102269.78;5022216;28;20265;-71
2022/05/14 22:44:06;;;;;;;15.00;6.23;;;;;;;11.64;100.00;102327.88;5022057;28;20254;-71
2022/05/14 22:46:33;;;;;;;16.53;6.00;;;;;;;11.21;100.00;102316.47;5018738;28;20184;-70
2022/05/14 22:48:58;;;;;;;15.97;6.60;;;;;;;11.36;100.00;102333.59;5021192;28;20193;-71